| time (UTC) | temp C | wind direction | speed KPH | gust KPH | rain 1hr cm | rain 24hr cm | rain mn cm | humidity % | barometer mb |
| 20260510192819 | 19 | 35 | 8.0 | 16.1 | 0.00 | 0.00 | 0.00 | 68 | 1016.9 |
| 20260510191830 | 19 | 55 | 6.4 | 14.5 | 0.00 | 0.00 | 0.00 | 69 | 1017.3 |
| 20260510191325 | 19 | 347 | 4.8 | 12.9 | 0.00 | 0.00 | 0.00 | 68 | 1017.3 |
| 20260510190819 | 19 | 351 | 6.4 | 14.5 | 0.00 | 0.00 | 0.00 | 69 | 1017.3 |
| 20260510185829 | 19 | 5 | 9.7 | 20.9 | 0.00 | 0.00 | 0.00 | 70 | 1017.0 |
| 20260510185323 | 18 | 57 | 11.3 | 20.9 | 0.00 | 0.00 | 0.00 | 69 | 1016.8 |
| 20260510184816 | 18 | 22 | 12.9 | 20.9 | 0.00 | 0.00 | 0.00 | 69 | 1016.7 |
| 20260510184314 | 18 | 51 | 12.9 | 22.5 | 0.00 | 0.00 | 0.00 | 69 | 1016.7 |
| 20260510183828 | 18 | 53 | 11.3 | 17.7 | 0.00 | 0.00 | 0.00 | 69 | 1016.7 |
| 20260510183318 | 18 | 24 | 8.0 | 16.1 | 0.00 | 0.00 | 0.00 | 70 | 1016.7 |
| 20260510182329 | 18 | 39 | 9.7 | 19.3 | 0.00 | 0.00 | 0.00 | 70 | 1016.6 |
| 20260510181320 | 18 | 24 | 9.7 | 16.1 | 0.00 | 0.00 | 0.00 | 70 | 1016.8 |
| 20260510180329 | 18 | 22 | 12.9 | 20.9 | 0.00 | 0.00 | 0.00 | 69 | 1017.0 |
| 20260510175828 | 18 | 43 | 11.3 | 20.9 | 0.00 | 0.00 | 0.00 | 70 | 1017.2 |
| 20260510174816 | 18 | 13 | 9.7 | 16.1 | 0.00 | 0.00 | 0.00 | 73 | 1017.1 |
| 20260510174331 | 18 | 30 | 9.7 | 17.7 | 0.00 | 0.00 | 0.00 | 73 | 1017.1 |
| 20260510173825 | 18 | 22 | 9.7 | 19.3 | 0.00 | 0.00 | 0.00 | 73 | 1017.1 |
| 20260510172816 | 18 | 5 | 8.0 | 20.9 | 0.00 | 0.00 | 0.00 | 75 | 1016.8 |
| 20260510172330 | 18 | 339 | 12.9 | 22.5 | 0.00 | 0.00 | 0.00 | 75 | 1016.7 |
| 20260510171324 | 18 | 350 | 11.3 | 20.9 | 0.00 | 0.00 | 0.00 | 75 | 1016.4 |
| 20260510170819 | 18 | 360 | 9.7 | 20.9 | 0.00 | 0.00 | 0.00 | 76 | 1016.4 |
| 20260510170332 | 18 | 10 | 12.9 | 22.5 | 0.00 | 0.00 | 0.00 | 75 | 1016.2 |
| 20260510165825 | 18 | 5 | 14.5 | 22.5 | 0.00 | 0.00 | 0.00 | 75 | 1016.1 |
| 20260510164816 | 18 | 355 | 14.5 | 25.7 | 0.00 | 0.00 | 0.00 | 76 | 1015.9 |
| 20260510164330 | 18 | 5 | 16.1 | 24.1 | 0.00 | 0.00 | 0.00 | 77 | 1015.8 |
| 20260510163826 | 18 | 38 | 11.3 | 20.9 | 0.00 | 0.00 | 0.00 | 77 | 1015.8 |
| 20260510163324 | 18 | 355 | 12.9 | 22.5 | 0.00 | 0.00 | 0.00 | 77 | 1015.6 |
| 20260510162315 | 19 | 24 | 11.3 | 24.1 | 0.00 | 0.00 | 0.00 | 77 | 1015.5 |
| 20260510161325 | 19 | 25 | 12.9 | 20.9 | 0.00 | 0.00 | 0.00 | 77 | 1015.3 |
| 20260510160819 | 19 | 355 | 12.9 | 20.9 | 0.00 | 0.00 | 0.00 | 78 | 1015.3 |
| 20260510160312 | 19 | 22 | 14.5 | 25.7 | 0.00 | 0.00 | 0.00 | 78 | 1015.2 |
| 20260510155825 | 19 | 53 | 19.3 | 25.7 | 0.00 | 0.00 | 0.00 | 78 | 1015.2 |
| 20260510155319 | 18 | 40 | 11.3 | 19.3 | 0.00 | 0.00 | 0.00 | 80 | 1015.3 |
| 20260510154818 | 18 | 19 | 11.3 | 20.9 | 0.00 | 0.00 | 0.00 | 81 | 1015.2 |
| 20260510154331 | 18 | 5 | 12.9 | 22.5 | 0.00 | 0.00 | 0.00 | 80 | 1015.1 |
| 20260510153825 | 18 | 22 | 14.5 | 22.5 | 0.00 | 0.00 | 0.00 | 80 | 1014.9 |
| 20260510153319 | 18 | 355 | 11.3 | 19.3 | 0.00 | 0.00 | 0.00 | 81 | 1015.0 |
| 20260510152812 | 18 | 12 | 12.9 | 22.5 | 0.00 | 0.00 | 0.00 | 81 | 1014.7 |
| 20260510152325 | 18 | 355 | 11.3 | 22.5 | 0.00 | 0.00 | 0.00 | 81 | 1014.5 |
| 20260510151820 | 18 | 346 | 14.5 | 20.9 | 0.00 | 0.00 | 0.00 | 81 | 1014.4 |
| 20260510151318 | 18 | 5 | 11.3 | 17.7 | 0.00 | 0.00 | 0.00 | 82 | 1014.4 |
| 20260510150812 | 18 | 28 | 8.0 | 17.7 | 0.00 | 0.00 | 0.00 | 82 | 1014.5 |
| 20260510150326 | 18 | 42 | 8.0 | 16.1 | 0.00 | 0.00 | 0.00 | 83 | 1014.3 |
| 20260510145821 | 17 | 48 | 8.0 | 17.7 | 0.00 | 0.00 | 0.00 | 83 | 1014.6 |
| 20260510144812 | 17 | 17 | 9.7 | 19.3 | 0.00 | 0.00 | 0.00 | 82 | 1014.4 |
| 20260510144325 | 17 | 9 | 11.3 | 22.5 | 0.00 | 0.00 | 0.00 | 82 | 1014.5 |
| 20260510143820 | 18 | 22 | 12.9 | 22.5 | 0.00 | 0.00 | 0.00 | 82 | 1014.5 |
| 20260510143318 | 18 | 5 | 11.3 | 19.3 | 0.00 | 0.00 | 0.00 | 83 | 1014.6 |
| 20260510142813 | 18 | 28 | 8.0 | 14.5 | 0.00 | 0.00 | 0.00 | 84 | 1014.6 |
| 20260510142327 | 18 | 325 | 8.0 | 14.5 | 0.00 | 0.00 | 0.00 | 86 | 1014.6 |
| 20260510141318 | 18 | 18 | 3.2 | 8.0 | 0.00 | 0.00 | 0.00 | 87 | 1014.6 |
| 20260510140812 | 18 | 336 | 3.2 | 8.0 | 0.00 | 0.00 | 0.00 | 87 | 1014.6 |
| 20260510140326 | 18 | 317 | 3.2 | 6.4 | 0.00 | 0.00 | 0.00 | 88 | 1014.8 |
| 20260510135317 | 17 | 313 | 3.2 | 8.0 | 0.00 | 0.00 | 0.00 | 89 | 1014.7 |
| 20260510134816 | 17 | 307 | 6.4 | 8.0 | 0.00 | 0.00 | 0.00 | 89 | 1014.7 |
| 20260510134330 | 17 | 309 | 4.8 | 6.4 | 0.00 | 0.00 | 0.00 | 89 | 1014.6 |
| 20260510133824 | 17 | 68 | 1.6 | 3.2 | 0.00 | 0.00 | 0.00 | 88 | 1014.4 |
| 20260510133318 | 17 | 68 | 1.6 | 3.2 | 0.00 | 0.00 | 0.00 | 88 | 1014.0 |
| 20260510132813 | 17 | 68 | 1.6 | 3.2 | 0.00 | 0.00 | 0.00 | 88 | 1014.0 |
| 20260510132327 | 17 | 69 | 1.6 | 3.2 | 0.00 | 0.00 | 0.00 | 88 | 1014.1 |
| 20260510131318 | 17 | 304 | 1.6 | 3.2 | 0.00 | 0.00 | 0.00 | 88 | 1014.1 |
| 20260510130816 | 17 | 270 | 0.0 | 1.6 | 0.00 | 0.00 | 0.00 | 87 | 1014.1 |
| 20260510125826 | 17 | 284 | 0.0 | 0.0 | 0.00 | 0.00 | 0.00 | 86 | 1014.0 |
| 20260510125320 | 17 | 284 | 0.0 | 1.6 | 0.00 | 0.00 | 0.00 | 86 | 1013.8 |
| 20260510124814 | 17 | 284 | 0.0 | 1.6 | 0.00 | 0.00 | 0.00 | 87 | 1013.5 |
| 20260510124329 | 17 | 284 | 0.0 | 1.6 | 0.00 | 0.00 | 0.00 | 87 | 1013.4 |
| 20260510122815 | 16 | 298 | 3.2 | 3.2 | 0.00 | 0.00 | 0.00 | 89 | 1013.0 |
| 20260510122314 | 16 | 296 | 0.0 | 1.6 | 0.00 | 0.00 | 0.00 | 90 | 1012.7 |
| 20260510121828 | 16 | 296 | 0.0 | 1.6 | 0.00 | 0.00 | 0.00 | 90 | 1012.5 |
| 20260510121323 | 15 | 227 | 0.0 | 1.6 | 0.00 | 0.00 | 0.00 | 90 | 1012.2 |
| 20260510120817 | 15 | 11 | 0.0 | 1.6 | 0.00 | 0.00 | 0.00 | 90 | 1012.2 |
| 20260510120332 | 15 | 9 | 0.0 | 1.6 | 0.00 | 0.00 | 0.00 | 90 | 1012.2 |
| 20260510115826 | 15 | 9 | 0.0 | 3.2 | 0.00 | 0.00 | 0.00 | 89 | 1012.4 |
| 20260510115321 | 14 | 347 | 1.6 | 4.8 | 0.00 | 0.00 | 0.00 | 89 | 1012.5 |
| 20260510113812 | 15 | 355 | 1.6 | 1.6 | 0.00 | 0.00 | 0.00 | 88 | 1012.1 |
| 20260510113327 | 15 | 355 | 0.0 | 3.2 | 0.00 | 0.00 | 0.00 | 87 | 1012.0 |
| 20260510112821 | 15 | 101 | 1.6 | 3.2 | 0.00 | 0.00 | 0.00 | 87 | 1011.8 |
| 20260510112316 | 15 | 101 | 1.6 | 3.2 | 0.00 | 0.00 | 0.00 | 87 | 1011.7 |
| 20260510111830 | 15 | 101 | 0.0 | 4.8 | 0.00 | 0.00 | 0.00 | 87 | 1011.6 |
| 20260510111324 | 15 | 99 | 1.6 | 6.4 | 0.00 | 0.00 | 0.00 | 87 | 1011.3 |
| 20260510110319 | 15 | 101 | 3.2 | 4.8 | 0.00 | 0.00 | 0.00 | 86 | 1011.3 |
| 20260510105812 | 15 | 24 | 0.0 | 1.6 | 0.00 | 0.00 | 0.00 | 86 | 1011.2 |
| 20260510105326 | 15 | 24 | 0.0 | 3.2 | 0.00 | 0.00 | 0.00 | 86 | 1011.2 |
| 20260510104821 | 15 | 24 | 1.6 | 3.2 | 0.00 | 0.00 | 0.00 | 85 | 1011.3 |
| 20260510103831 | 15 | 82 | 1.6 | 3.2 | 0.00 | 0.00 | 0.00 | 84 | 1011.2 |
| 20260510103326 | 16 | 50 | 0.0 | 3.2 | 0.00 | 0.00 | 0.00 | 84 | 1011.3 |
| 20260510102317 | 16 | 50 | 1.6 | 3.2 | 0.00 | 0.00 | 0.00 | 84 | 1011.3 |
| 20260510101815 | 16 | 32 | 1.6 | 3.2 | 0.00 | 0.00 | 0.00 | 84 | 1011.2 |
| 20260510101330 | 16 | 30 | 1.6 | 3.2 | 0.00 | 0.00 | 0.00 | 84 | 1011.2 |
| 20260510100320 | 16 | 27 | 3.2 | 6.4 | 0.00 | 0.00 | 0.00 | 84 | 1011.1 |
| 20260510095814 | 16 | 9 | 3.2 | 6.4 | 0.00 | 0.00 | 0.00 | 84 | 1011.1 |
| 20260510095330 | 16 | 26 | 3.2 | 6.4 | 0.00 | 0.03 | 0.00 | 84 | 1011.0 |
| 20260510094824 | 16 | 26 | 3.2 | 6.4 | 0.00 | 0.03 | 0.00 | 84 | 1010.9 |
| 20260510093819 | 16 | 140 | 0.0 | 0.0 | 0.00 | 0.03 | 0.00 | 81 | 1010.6 |
| 20260510093313 | 16 | 140 | 0.0 | 0.0 | 0.00 | 0.03 | 0.00 | 81 | 1010.5 |
| 20260510092828 | 17 | 140 | 0.0 | 0.0 | 0.00 | 0.03 | 0.00 | 79 | 1010.4 |
| 20260510092321 | 17 | 142 | 0.0 | 0.0 | 0.00 | 0.03 | 0.00 | 79 | 1010.3 |
| 20260510091816 | 17 | 142 | 0.0 | 1.6 | 0.00 | 0.03 | 0.00 | 78 | 1010.1 |
| 20260510091329 | 17 | 142 | 0.0 | 1.6 | 0.00 | 0.03 | 0.00 | 78 | 1010.0 |
| 20260510090824 | 17 | 142 | 0.0 | 1.6 | 0.00 | 0.03 | 0.00 | 78 | 1009.9 |
| 20260510090318 | 17 | 142 | 0.0 | 3.2 | 0.00 | 0.03 | 0.00 | 77 | 1010.0 |
| 20260510085817 | 17 | 142 | 0.0 | 6.4 | 0.00 | 0.03 | 0.00 | 78 | 1010.1 |
| 20260510085331 | 17 | 146 | 1.6 | 6.4 | 0.00 | 0.03 | 0.00 | 79 | 1009.9 |
| 20260510084826 | 17 | 140 | 3.2 | 6.4 | 0.00 | 0.03 | 0.00 | 81 | 1009.8 |
| 20260510084317 | 17 | 103 | 3.2 | 4.8 | 0.00 | 0.03 | 0.00 | 82 | 1009.8 |
| 20260510083812 | 17 | 122 | 0.0 | 0.0 | 0.00 | 0.03 | 0.00 | 82 | 1009.9 |
| 20260510082823 | 17 | 122 | 0.0 | 3.2 | 0.00 | 0.03 | 0.00 | 83 | 1010.1 |
| 20260510082318 | 17 | 122 | 1.6 | 6.4 | 0.00 | 0.03 | 0.00 | 83 | 1010.0 |
| 20260510081816 | 17 | 122 | 1.6 | 16.1 | 0.00 | 0.03 | 0.00 | 83 | 1009.7 |
| 20260510081330 | 17 | 233 | 3.2 | 16.1 | 0.00 | 0.03 | 0.00 | 84 | 1009.6 |
| 20260510080824 | 17 | 207 | 1.6 | 4.8 | 0.00 | 0.03 | 0.00 | 85 | 1009.4 |
| 20260510080318 | 17 | 95 | 0.0 | 6.4 | 0.00 | 0.03 | 0.00 | 85 | 1009.0 |
| 20260510075813 | 17 | 94 | 3.2 | 4.8 | 0.00 | 0.03 | 0.00 | 85 | 1008.6 |
| 20260510075327 | 17 | 75 | 0.0 | 0.0 | 0.00 | 0.03 | 0.00 | 85 | 1008.7 |
| 20260510074822 | 17 | 75 | 0.0 | 0.0 | 0.00 | 0.03 | 0.00 | 84 | 1008.8 |
| 20260510074320 | 17 | 75 | 0.0 | 0.0 | 0.00 | 0.03 | 0.00 | 84 | 1009.0 |
| 20260510073815 | 17 | 75 | 0.0 | 3.2 | 0.00 | 0.03 | 0.00 | 84 | 1009.0 |
| 20260510073329 | 17 | 75 | 0.0 | 4.8 | 0.00 | 0.03 | 0.00 | 84 | 1008.9 |
| 20260510072822 | 17 | 74 | 3.2 | 4.8 | 0.00 | 0.03 | 0.00 | 85 | 1009.0 |
| 20260510072317 | 17 | 104 | 3.2 | 4.8 | 0.00 | 0.03 | 0.00 | 85 | 1009.2 |
| 20260510071811 | 17 | 107 | 0.0 | 3.2 | 0.00 | 0.03 | 0.00 | 84 | 1009.1 |
| 20260510070823 | 17 | 107 | 0.0 | 4.8 | 0.00 | 0.03 | 0.00 | 84 | 1009.4 |
| 20260510070321 | 17 | 106 | 3.2 | 4.8 | 0.00 | 0.03 | 0.00 | 84 | 1009.5 |
| 20260510065816 | 17 | 97 | 3.2 | 6.4 | 0.00 | 0.03 | 0.00 | 84 | 1009.5 |
| 20260510065310 | 17 | 94 | 4.8 | 6.4 | 0.00 | 0.05 | 0.00 | 85 | 1009.7 |
| 20260510064825 | 17 | 146 | 1.6 | 4.8 | 0.00 | 0.05 | 0.00 | 85 | 1009.6 |
| 20260510064318 | 17 | 152 | 1.6 | 4.8 | 0.00 | 0.05 | 0.00 | 86 | 1009.5 |
| 20260510063812 | 17 | 161 | 3.2 | 4.8 | 0.00 | 0.05 | 0.00 | 86 | 1009.7 |
| 20260510063327 | 17 | 150 | 1.6 | 4.8 | 0.00 | 0.05 | 0.00 | 86 | 1009.6 |
| 20260510062821 | 17 | 141 | 0.0 | 3.2 | 0.00 | 0.05 | 0.00 | 86 | 1010.0 |
| 20260510062319 | 17 | 141 | 1.6 | 6.4 | 0.00 | 0.05 | 0.00 | 86 | 1010.1 |
| 20260510061330 | 17 | 327 | 3.2 | 6.4 | 0.00 | 0.05 | 0.00 | 86 | 1010.6 |
| 20260510060824 | 17 | 147 | 0.0 | 3.2 | 0.00 | 0.05 | 0.00 | 86 | 1010.7 |
| 20260510060317 | 17 | 147 | 1.6 | 4.8 | 0.00 | 0.05 | 0.00 | 85 | 1010.8 |
| 20260510055811 | 17 | 147 | 3.2 | 6.4 | 0.00 | 0.05 | 0.00 | 85 | 1010.9 |
| 20260510055326 | 17 | 324 | 3.2 | 6.4 | 0.00 | 0.05 | 0.00 | 85 | 1010.9 |
| 20260510054821 | 17 | 312 | 0.0 | 1.6 | 0.00 | 0.05 | 0.00 | 85 | 1010.8 |
| 20260510053313 | 17 | 312 | 0.0 | 1.6 | 0.00 | 0.05 | 0.00 | 85 | 1010.7 |
| 20260510052827 | 17 | 312 | 0.0 | 0.0 | 0.00 | 0.05 | 0.00 | 86 | 1010.9 |
| 20260510052322 | 17 | 312 | 0.0 | 0.0 | 0.00 | 0.05 | 0.00 | 87 | 1010.9 |
| 20260510051817 | 17 | 312 | 0.0 | 0.0 | 0.00 | 0.05 | 0.00 | 86 | 1011.0 |
| 20260510051311 | 16 | 312 | 0.0 | 3.2 | 0.00 | 0.05 | 0.00 | 87 | 1011.0 |
| 20260510050825 | 16 | 312 | 0.0 | 3.2 | 0.00 | 0.05 | 0.00 | 87 | 1011.0 |
| 20260510050324 | 16 | 312 | 1.6 | 3.2 | 0.00 | 0.05 | 0.00 | 87 | 1011.0 |
| 20260510045818 | 16 | 312 | 0.0 | 3.2 | 0.00 | 0.05 | 0.00 | 87 | 1010.9 |
| 20260510045312 | 16 | 312 | 0.0 | 4.8 | 0.00 | 0.05 | 0.05 | 87 | 1010.8 |
| 20260510044826 | 16 | 312 | 3.2 | 4.8 | 0.00 | 0.05 | 0.05 | 87 | 1010.6 |
| 20260510044320 | 16 | 311 | 3.2 | 4.8 | 0.00 | 0.05 | 0.05 | 87 | 1010.5 |
| 20260510043814 | 16 | 140 | 0.0 | 0.0 | 0.00 | 0.05 | 0.05 | 86 | 1010.2 |
| 20260510043329 | 16 | 135 | 0.0 | 0.0 | 0.00 | 0.05 | 0.05 | 85 | 1010.2 |
| 20260510042322 | 16 | 135 | 0.0 | 0.0 | 0.00 | 0.05 | 0.05 | 84 | 1009.8 |
| 20260510041815 | 16 | 135 | 0.0 | 0.0 | 0.00 | 0.05 | 0.05 | 84 | 1009.7 |
| 20260510041330 | 16 | 135 | 0.0 | 1.6 | 0.00 | 0.05 | 0.05 | 84 | 1009.6 |
| 20260510040823 | 16 | 135 | 1.6 | 1.6 | 0.00 | 0.05 | 0.05 | 84 | 1009.6 |
| 20260510040318 | 17 | 135 | 0.0 | 3.2 | 0.00 | 0.05 | 0.05 | 84 | 1009.6 |
| 20260510035812 | 17 | 136 | 0.0 | 3.2 | 0.00 | 0.05 | 0.05 | 83 | 1009.7 |
| 20260510035325 | 17 | 136 | 0.0 | 0.0 | 0.00 | 0.05 | 0.05 | 83 | 1009.8 |
| 20260510034820 | 17 | 143 | 0.0 | 0.0 | 0.00 | 0.05 | 0.05 | 83 | 1009.7 |
| 20260510033311 | 17 | 175 | 0.0 | 0.0 | 0.00 | 0.05 | 0.05 | 85 | 1009.7 |
| 20260510032826 | 16 | 175 | 0.0 | 1.6 | 0.00 | 0.05 | 0.05 | 84 | 1009.7 |
| 20260510032320 | 16 | 175 | 0.0 | 3.2 | 0.00 | 0.05 | 0.05 | 84 | 1009.8 |
| 20260510031815 | 17 | 175 | 1.6 | 3.2 | 0.00 | 0.05 | 0.05 | 83 | 1010.0 |
| 20260510031329 | 17 | 173 | 0.0 | 4.8 | 0.00 | 0.05 | 0.05 | 83 | 1010.0 |
| 20260510030823 | 17 | 173 | 1.6 | 4.8 | 0.00 | 0.05 | 0.05 | 82 | 1009.9 |
| 20260510030322 | 17 | 67 | 0.0 | 0.0 | 0.00 | 0.05 | 0.05 | 82 | 1009.5 |
| 20260510025816 | 17 | 65 | 0.0 | 0.0 | 0.00 | 0.05 | 0.05 | 80 | 1009.3 |
| 20260510024826 | 17 | 65 | 0.0 | 0.0 | 0.00 | 0.05 | 0.05 | 77 | 1008.8 |
| 20260510024320 | 17 | 65 | 0.0 | 0.0 | 0.00 | 0.05 | 0.05 | 76 | 1008.7 |
| 20260510023814 | 18 | 65 | 0.0 | 0.0 | 0.00 | 0.05 | 0.05 | 76 | 1008.4 |
| 20260510023328 | 18 | 65 | 0.0 | 0.0 | 0.00 | 0.05 | 0.05 | 76 | 1008.4 |
| 20260510022822 | 18 | 65 | 0.0 | 0.0 | 0.00 | 0.05 | 0.05 | 76 | 1008.2 |
| 20260510021311 | 19 | 65 | 0.0 | 0.0 | 0.00 | 0.05 | 0.05 | 71 | 1007.9 |
| 20260510020825 | 19 | 65 | 0.0 | 0.0 | 0.00 | 0.05 | 0.05 | 71 | 1007.9 |
| 20260510020319 | 20 | 65 | 0.0 | 0.0 | 0.00 | 0.05 | 0.05 | 70 | 1007.8 |
| 20260510015814 | 20 | 65 | 0.0 | 0.0 | 0.00 | 0.05 | 0.05 | 68 | 1007.7 |
| 20260510015327 | 20 | 65 | 0.0 | 0.0 | 0.00 | 0.05 | 0.05 | 67 | 1007.6 |
| 20260510014822 | 20 | 65 | 0.0 | 0.0 | 0.00 | 0.05 | 0.05 | 67 | 1007.6 |
| 20260510014316 | 21 | 65 | 0.0 | 0.0 | 0.00 | 0.05 | 0.05 | 65 | 1007.3 |
| 20260510013814 | 21 | 65 | 0.0 | 0.0 | 0.00 | 0.05 | 0.05 | 63 | 1007.3 |
| 20260510013330 | 21 | 65 | 0.0 | 0.0 | 0.00 | 0.05 | 0.05 | 63 | 1007.2 |
| 20260510012824 | 21 | 65 | 0.0 | 0.0 | 0.00 | 0.05 | 0.05 | 63 | 1007.1 |
| 20260510012318 | 22 | 65 | 0.0 | 0.0 | 0.00 | 0.05 | 0.05 | 62 | 1007.0 |
| 20260510011812 | 22 | 65 | 0.0 | 0.0 | 0.00 | 0.05 | 0.05 | 60 | 1006.8 |
| 20260510011326 | 22 | 215 | 0.0 | 0.0 | 0.00 | 0.05 | 0.05 | 60 | 1006.7 |
| 20260510010820 | 23 | 62 | 0.0 | 3.2 | 0.00 | 0.05 | 0.05 | 58 | 1006.6 |
| 20260510010319 | 23 | 62 | 1.6 | 3.2 | 0.00 | 0.05 | 0.05 | 57 | 1006.6 |
| 20260510005814 | 24 | 62 | 1.6 | 3.2 | 0.00 | 0.05 | 0.05 | 55 | 1006.6 |
| 20260510005328 | 24 | 62 | 1.6 | 3.2 | 0.00 | 0.28 | 0.05 | 54 | 1006.5 |
| 20260510004823 | 25 | 167 | 0.0 | 3.2 | 0.00 | 0.28 | 0.05 | 53 | 1006.5 |
| 20260510004316 | 25 | 172 | 0.0 | 1.6 | 0.00 | 0.28 | 0.05 | 54 | 1006.4 |
| 20260510003830 | 25 | 173 | 0.0 | 3.2 | 0.00 | 0.28 | 0.05 | 53 | 1006.4 |
| 20260510003324 | 25 | 184 | 0.0 | 1.6 | 0.00 | 0.28 | 0.05 | 53 | 1006.4 |
| 20260510002319 | 26 | 217 | 1.6 | 3.2 | 0.00 | 0.28 | 0.05 | 52 | 1006.2 |
| 20260510001311 | 26 | 123 | 1.6 | 6.4 | 0.00 | 0.28 | 0.05 | 49 | 1006.4 |
| 20260510000825 | 26 | 117 | 3.2 | 6.4 | 0.00 | 0.28 | 0.05 | 48 | 1006.4 |
| 20260510000320 | 26 | 111 | 1.6 | 4.8 | 0.00 | 0.28 | 0.05 | 48 | 1006.5 |
| 20260509235815 | 27 | 119 | 1.6 | 4.8 | 0.00 | 0.28 | 0.05 | 47 | 1006.4 |
| 20260509234824 | 27 | 151 | 1.6 | 4.8 | 0.00 | 0.36 | 0.05 | 46 | 1006.5 |
| 20260509232813 | 27 | 111 | 3.2 | 9.7 | 0.00 | 0.36 | 0.05 | 43 | 1006.5 |
| 20260509231824 | 27 | 77 | 4.8 | 12.9 | 0.00 | 0.36 | 0.05 | 44 | 1006.5 |
| 20260509230815 | 27 | 121 | 3.2 | 6.4 | 0.00 | 0.36 | 0.05 | 45 | 1006.7 |
| 20260509230329 | 27 | 157 | 3.2 | 6.4 | 0.00 | 0.36 | 0.05 | 44 | 1006.7 |
| 20260509225823 | 28 | 132 | 3.2 | 6.4 | 0.00 | 0.36 | 0.05 | 46 | 1006.7 |
| 20260509225318 | 27 | 152 | 0.0 | 4.8 | 0.00 | 0.36 | 0.05 | 44 | 1006.8 |
| 20260509224313 | 28 | 170 | 3.2 | 8.0 | 0.00 | 0.36 | 0.05 | 48 | 1006.8 |
| 20260509223322 | 28 | 146 | 4.8 | 8.0 | 0.00 | 0.36 | 0.05 | 42 | 1006.7 |
| 20260509222817 | 28 | 160 | 3.2 | 9.7 | 0.00 | 0.36 | 0.05 | 46 | 1006.8 |
| 20260509222311 | 28 | 109 | 4.8 | 9.7 | 0.00 | 0.36 | 0.05 | 41 | 1006.8 |
| 20260509221827 | 28 | 122 | 3.2 | 4.8 | 0.00 | 0.36 | 0.05 | 43 | 1006.8 |
| 20260509221320 | 28 | 176 | 1.6 | 6.4 | 0.00 | 0.36 | 0.05 | 44 | 1006.9 |
| 20260509220819 | 28 | 192 | 3.2 | 6.4 | 0.00 | 0.36 | 0.05 | 43 | 1006.9 |
| 20260509220313 | 28 | 206 | 3.2 | 6.4 | 0.00 | 0.36 | 0.05 | 39 | 1007.0 |
| 20260509215828 | 28 | 139 | 1.6 | 9.7 | 0.00 | 0.36 | 0.05 | 44 | 1007.1 |
| 20260509214311 | 28 | 163 | 0.0 | 8.0 | 0.00 | 0.36 | 0.05 | 40 | 1007.2 |
| 20260509213825 | 28 | 247 | 4.8 | 8.0 | 0.00 | 0.36 | 0.05 | 39 | 1007.1 |
| 20260509212815 | 28 | 168 | 1.6 | 6.4 | 0.00 | 0.36 | 0.05 | 43 | 1007.3 |
| 20260509212313 | 28 | 90 | 3.2 | 9.7 | 0.00 | 0.36 | 0.05 | 38 | 1007.4 |
| 20260509211827 | 28 | 101 | 4.8 | 9.7 | 0.00 | 0.36 | 0.05 | 38 | 1007.4 |
| 20260509211321 | 28 | 122 | 0.0 | 6.4 | 0.00 | 0.36 | 0.05 | 40 | 1007.5 |
| 20260509210814 | 28 | 178 | 3.2 | 11.3 | 0.00 | 0.36 | 0.05 | 39 | 1007.5 |
| 20260509210328 | 28 | 130 | 3.2 | 6.4 | 0.00 | 0.36 | 0.05 | 42 | 1007.5 |
| 20260509205823 | 28 | 95 | 4.8 | 9.7 | 0.00 | 0.36 | 0.05 | 38 | 1007.5 |
| 20260509204812 | 28 | 121 | 3.2 | 9.7 | 0.00 | 0.36 | 0.05 | 35 | 1007.6 |
| 20260509203826 | 27 | 271 | 1.6 | 9.7 | 0.00 | 0.36 | 0.05 | 44 | 1007.7 |
| 20260509203319 | 27 | 116 | 1.6 | 8.0 | 0.00 | 0.36 | 0.05 | 42 | 1007.8 |
| 20260509202814 | 28 | 151 | 3.2 | 9.7 | 0.00 | 0.36 | 0.05 | 51 | 1007.8 |
| 20260509202328 | 27 | 246 | 1.6 | 9.7 | 0.00 | 0.36 | 0.05 | 44 | 1007.8 |
| 20260509201822 | 27 | 209 | 1.6 | 6.4 | 0.00 | 0.36 | 0.05 | 44 | 1007.9 |
| 20260509201317 | 28 | 130 | 3.2 | 6.4 | 0.00 | 0.36 | 0.05 | 46 | 1008.1 |
| 20260509200831 | 27 | 307 | 1.6 | 6.4 | 0.00 | 0.36 | 0.05 | 46 | 1008.1 |
| 20260509200324 | 27 | 156 | 3.2 | 11.3 | 0.00 | 0.36 | 0.05 | 43 | 1008.2 |
| 20260509195822 | 27 | 136 | 4.8 | 11.3 | 0.00 | 0.36 | 0.05 | 49 | 1008.3 |
| 20260509194813 | 27 | 160 | 4.8 | 8.0 | 0.00 | 0.36 | 0.05 | 46 | 1008.3 |
| 20260509194326 | 27 | 186 | 4.8 | 6.4 | 0.00 | 0.36 | 0.05 | 49 | 1008.3 |
| 20260509193820 | 27 | 152 | 1.6 | 8.0 | 0.00 | 0.36 | 0.05 | 48 | 1008.3 |
| 20260509193314 | 27 | 194 | 4.8 | 8.0 | 0.00 | 0.36 | 0.05 | 51 | 1008.2 |